sensor_id;sensor_type;location;lat;lon;timestamp;P1;durP1;ratioP1;P2;durP2;ratioP2
5555;SDS011;2801;50.972;7.856;2023-07-02T00:00:06;11.07;;;8.13;;
5555;SDS011;2801;50.972;7.856;2023-07-02T00:02:36;13.80;;;8.18;;
5555;SDS011;2801;50.972;7.856;2023-07-02T00:05:04;12.32;;;8.65;;
5555;SDS011;2801;50.972;7.856;2023-07-02T00:07:33;15.80;;;9.63;;
5555;SDS011;2801;50.972;7.856;2023-07-02T00:10:03;15.02;;;10.13;;
5555;SDS011;2801;50.972;7.856;2023-07-02T00:12:31;17.20;;;10.90;;
5555;SDS011;2801;50.972;7.856;2023-07-02T00:14:58;19.25;;;11.57;;
5555;SDS011;2801;50.972;7.856;2023-07-02T00:17:26;15.80;;;11.82;;
5555;SDS011;2801;50.972;7.856;2023-07-02T00:19:54;19.17;;;13.18;;
5555;SDS011;2801;50.972;7.856;2023-07-02T00:22:21;19.58;;;12.80;;
5555;SDS011;2801;50.972;7.856;2023-07-02T00:24:48;20.00;;;14.18;;
5555;SDS011;2801;50.972;7.856;2023-07-02T00:27:17;15.65;;;12.80;;
5555;SDS011;2801;50.972;7.856;2023-07-02T00:29:44;17.23;;;13.57;;
5555;SDS011;2801;50.972;7.856;2023-07-02T00:32:11;18.38;;;13.38;;
5555;SDS011;2801;50.972;7.856;2023-07-02T00:34:38;19.23;;;13.63;;
5555;SDS011;2801;50.972;7.856;2023-07-02T00:37:05;18.15;;;12.50;;
5555;SDS011;2801;50.972;7.856;2023-07-02T00:39:32;17.13;;;11.65;;
5555;SDS011;2801;50.972;7.856;2023-07-02T00:42:03;14.07;;;11.27;;
5555;SDS011;2801;50.972;7.856;2023-07-02T00:44:30;14.48;;;11.18;;
5555;SDS011;2801;50.972;7.856;2023-07-02T00:46:57;14.82;;;10.68;;
5555;SDS011;2801;50.972;7.856;2023-07-02T00:49:25;14.98;;;10.20;;
5555;SDS011;2801;50.972;7.856;2023-07-02T00:51:52;16.67;;;10.27;;
5555;SDS011;2801;50.972;7.856;2023-07-02T00:54:19;12.32;;;9.88;;
5555;SDS011;2801;50.972;7.856;2023-07-02T00:56:46;12.98;;;9.82;;
5555;SDS011;2801;50.972;7.856;2023-07-02T00:59:13;14.48;;;10.00;;
5555;SDS011;2801;50.972;7.856;2023-07-02T01:01:40;16.23;;;9.75;;
5555;SDS011;2801;50.972;7.856;2023-07-02T01:04:07;13.73;;;9.48;;
5555;SDS011;2801;50.972;7.856;2023-07-02T01:06:35;12.00;;;8.55;;
5555;SDS011;2801;50.972;7.856;2023-07-02T01:09:07;13.30;;;8.48;;
5555;SDS011;2801;50.972;7.856;2023-07-02T01:14:10;14.60;;;8.77;;
5555;SDS011;2801;50.972;7.856;2023-07-02T01:16:43;11.95;;;8.15;;
5555;SDS011;2801;50.972;7.856;2023-07-02T01:19:13;13.30;;;7.70;;
5555;SDS011;2801;50.972;7.856;2023-07-02T01:21:48;14.02;;;8.55;;
5555;SDS011;2801;50.972;7.856;2023-07-02T01:24:16;15.38;;;8.45;;
5555;SDS011;2801;50.972;7.856;2023-07-02T01:26:44;16.23;;;7.57;;
5555;SDS011;2801;50.972;7.856;2023-07-02T01:29:18;9.25;;;6.05;;
5555;SDS011;2801;50.972;7.856;2023-07-02T01:31:47;11.80;;;6.30;;
5555;SDS011;2801;50.972;7.856;2023-07-02T01:34:14;11.68;;;6.47;;
5555;SDS011;2801;50.972;7.856;2023-07-02T01:36:41;9.98;;;5.93;;
5555;SDS011;2801;50.972;7.856;2023-07-02T01:39:08;11.18;;;5.60;;
5555;SDS011;2801;50.972;7.856;2023-07-02T01:44:36;13.57;;;6.38;;
5555;SDS011;2801;50.972;7.856;2023-07-02T01:47:04;9.80;;;5.25;;
5555;SDS011;2801;50.972;7.856;2023-07-02T01:49:32;8.93;;;5.97;;
5555;SDS011;2801;50.972;7.856;2023-07-02T01:51:59;12.60;;;5.90;;
5555;SDS011;2801;50.972;7.856;2023-07-02T01:54:26;9.52;;;5.72;;
5555;SDS011;2801;50.972;7.856;2023-07-02T01:56:54;15.48;;;5.47;;
5555;SDS011;2801;50.972;7.856;2023-07-02T01:59:23;11.88;;;5.38;;
5555;SDS011;2801;50.972;7.856;2023-07-02T02:01:50;10.75;;;5.57;;
5555;SDS011;2801;50.972;7.856;2023-07-02T02:04:17;8.73;;;5.03;;
5555;SDS011;2801;50.972;7.856;2023-07-02T02:06:44;9.05;;;4.85;;
5555;SDS011;2801;50.972;7.856;2023-07-02T02:09:11;8.30;;;4.93;;
5555;SDS011;2801;50.972;7.856;2023-07-02T02:11:39;12.10;;;5.85;;
5555;SDS011;2801;50.972;7.856;2023-07-02T02:14:11;10.68;;;5.95;;
5555;SDS011;2801;50.972;7.856;2023-07-02T02:16:38;8.13;;;5.57;;
5555;SDS011;2801;50.972;7.856;2023-07-02T02:19:06;8.65;;;5.43;;
5555;SDS011;2801;50.972;7.856;2023-07-02T02:21:33;8.80;;;5.10;;
5555;SDS011;2801;50.972;7.856;2023-07-02T02:24:00;11.25;;;5.78;;
5555;SDS011;2801;50.972;7.856;2023-07-02T02:26:27;10.45;;;5.30;;
5555;SDS011;2801;50.972;7.856;2023-07-02T02:28:54;10.90;;;5.88;;
5555;SDS011;2801;50.972;7.856;2023-07-02T02:31:21;10.82;;;5.95;;
5555;SDS011;2801;50.972;7.856;2023-07-02T02:33:48;10.45;;;5.55;;
5555;SDS011;2801;50.972;7.856;2023-07-02T02:36:15;10.75;;;5.45;;
5555;SDS011;2801;50.972;7.856;2023-07-02T02:38:43;12.60;;;5.65;;
5555;SDS011;2801;50.972;7.856;2023-07-02T02:41:10;10.20;;;5.70;;
5555;SDS011;2801;50.972;7.856;2023-07-02T02:43:37;11.52;;;5.65;;
5555;SDS011;2801;50.972;7.856;2023-07-02T02:46:09;13.32;;;5.68;;
5555;SDS011;2801;50.972;7.856;2023-07-02T02:48:37;11.13;;;5.72;;
5555;SDS011;2801;50.972;7.856;2023-07-02T02:51:05;12.32;;;6.25;;
5555;SDS011;2801;50.972;7.856;2023-07-02T02:53:32;11.52;;;5.88;;
5555;SDS011;2801;50.972;7.856;2023-07-02T02:55:59;14.93;;;6.05;;
5555;SDS011;2801;50.972;7.856;2023-07-02T02:58:26;13.15;;;6.45;;
5555;SDS011;2801;50.972;7.856;2023-07-02T03:00:54;12.38;;;6.18;;
5555;SDS011;2801;50.972;7.856;2023-07-02T03:03:21;11.43;;;6.15;;
5555;SDS011;2801;50.972;7.856;2023-07-02T03:05:50;12.02;;;6.38;;
5555;SDS011;2801;50.972;7.856;2023-07-02T03:08:17;12.63;;;6.13;;
5555;SDS011;2801;50.972;7.856;2023-07-02T03:10:44;12.35;;;6.32;;
5555;SDS011;2801;50.972;7.856;2023-07-02T03:13:12;11.70;;;7.28;;
5555;SDS011;2801;50.972;7.856;2023-07-02T03:15:39;13.15;;;8.20;;
5555;SDS011;2801;50.972;7.856;2023-07-02T03:18:06;15.38;;;7.63;;
5555;SDS011;2801;50.972;7.856;2023-07-02T03:20:33;15.20;;;7.32;;
5555;SDS011;2801;50.972;7.856;2023-07-02T03:23:00;14.38;;;7.60;;
5555;SDS011;2801;50.972;7.856;2023-07-02T03:25:27;14.10;;;7.47;;
5555;SDS011;2801;50.972;7.856;2023-07-02T03:27:54;15.75;;;7.75;;
5555;SDS011;2801;50.972;7.856;2023-07-02T03:30:21;14.68;;;7.13;;
5555;SDS011;2801;50.972;7.856;2023-07-02T03:32:48;13.23;;;7.28;;
5555;SDS011;2801;50.972;7.856;2023-07-02T03:35:15;15.90;;;7.35;;
5555;SDS011;2801;50.972;7.856;2023-07-02T03:37:42;13.48;;;6.95;;
5555;SDS011;2801;50.972;7.856;2023-07-02T03:40:10;16.92;;;7.20;;
5555;SDS011;2801;50.972;7.856;2023-07-02T03:42:37;15.25;;;6.88;;
5555;SDS011;2801;50.972;7.856;2023-07-02T03:45:04;13.35;;;6.82;;
5555;SDS011;2801;50.972;7.856;2023-07-02T03:47:31;15.32;;;6.85;;
5555;SDS011;2801;50.972;7.856;2023-07-02T03:49:59;12.05;;;6.78;;
5555;SDS011;2801;50.972;7.856;2023-07-02T03:52:26;14.88;;;5.57;;
5555;SDS011;2801;50.972;7.856;2023-07-02T03:54:52;13.65;;;6.03;;
5555;SDS011;2801;50.972;7.856;2023-07-02T03:57:20;16.67;;;6.10;;
5555;SDS011;2801;50.972;7.856;2023-07-02T03:59:46;10.25;;;5.65;;
5555;SDS011;2801;50.972;7.856;2023-07-02T04:02:13;11.02;;;6.07;;
5555;SDS011;2801;50.972;7.856;2023-07-02T04:04:40;15.27;;;6.90;;
5555;SDS011;2801;50.972;7.856;2023-07-02T04:07:07;16.23;;;6.90;;
5555;SDS011;2801;50.972;7.856;2023-07-02T04:09:34;13.35;;;6.65;;
5555;SDS011;2801;50.972;7.856;2023-07-02T04:12:01;14.32;;;6.53;;
5555;SDS011;2801;50.972;7.856;2023-07-02T04:14:28;16.23;;;7.13;;
5555;SDS011;2801;50.972;7.856;2023-07-02T04:16:55;11.38;;;6.90;;
5555;SDS011;2801;50.972;7.856;2023-07-02T04:19:22;16.50;;;6.53;;
5555;SDS011;2801;50.972;7.856;2023-07-02T04:21:49;14.75;;;7.25;;
5555;SDS011;2801;50.972;7.856;2023-07-02T04:24:16;17.25;;;7.15;;
5555;SDS011;2801;50.972;7.856;2023-07-02T04:26:44;18.00;;;7.30;;
5555;SDS011;2801;50.972;7.856;2023-07-02T04:29:31;14.85;;;7.22;;
5555;SDS011;2801;50.972;7.856;2023-07-02T04:31:58;13.18;;;6.65;;
5555;SDS011;2801;50.972;7.856;2023-07-02T04:34:25;18.63;;;7.60;;
5555;SDS011;2801;50.972;7.856;2023-07-02T04:36:52;15.98;;;8.13;;
5555;SDS011;2801;50.972;7.856;2023-07-02T04:39:20;15.68;;;7.47;;
5555;SDS011;2801;50.972;7.856;2023-07-02T04:41:47;15.55;;;8.02;;
5555;SDS011;2801;50.972;7.856;2023-07-02T04:44:18;16.83;;;7.53;;
5555;SDS011;2801;50.972;7.856;2023-07-02T04:46:48;15.40;;;7.78;;
5555;SDS011;2801;50.972;7.856;2023-07-02T04:49:15;18.38;;;7.55;;
5555;SDS011;2801;50.972;7.856;2023-07-02T04:51:42;17.13;;;7.75;;
5555;SDS011;2801;50.972;7.856;2023-07-02T04:54:08;16.88;;;7.75;;
5555;SDS011;2801;50.972;7.856;2023-07-02T04:56:35;15.45;;;7.95;;
5555;SDS011;2801;50.972;7.856;2023-07-02T04:59:02;23.73;;;9.07;;
5555;SDS011;2801;50.972;7.856;2023-07-02T05:01:33;20.75;;;8.35;;
5555;SDS011;2801;50.972;7.856;2023-07-02T05:03:59;18.25;;;8.55;;
5555;SDS011;2801;50.972;7.856;2023-07-02T05:06:27;19.95;;;8.90;;
5555;SDS011;2801;50.972;7.856;2023-07-02T05:08:54;17.63;;;8.40;;
5555;SDS011;2801;50.972;7.856;2023-07-02T05:11:21;17.52;;;8.43;;
5555;SDS011;2801;50.972;7.856;2023-07-02T05:13:48;20.58;;;9.32;;
5555;SDS011;2801;50.972;7.856;2023-07-02T05:16:15;21.42;;;8.98;;
5555;SDS011;2801;50.972;7.856;2023-07-02T05:18:43;23.13;;;10.10;;
5555;SDS011;2801;50.972;7.856;2023-07-02T05:21:10;19.33;;;9.70;;
5555;SDS011;2801;50.972;7.856;2023-07-02T05:23:38;20.50;;;9.00;;
5555;SDS011;2801;50.972;7.856;2023-07-02T05:26:05;22.35;;;9.25;;
5555;SDS011;2801;50.972;7.856;2023-07-02T05:28:31;19.60;;;9.85;;
5555;SDS011;2801;50.972;7.856;2023-07-02T05:30:58;21.02;;;10.00;;
5555;SDS011;2801;50.972;7.856;2023-07-02T05:33:25;22.38;;;9.55;;
5555;SDS011;2801;50.972;7.856;2023-07-02T05:35:52;25.13;;;11.00;;
5555;SDS011;2801;50.972;7.856;2023-07-02T05:38:19;23.23;;;9.82;;
5555;SDS011;2801;50.972;7.856;2023-07-02T05:40:47;19.27;;;10.15;;
5555;SDS011;2801;50.972;7.856;2023-07-02T05:43:14;21.77;;;10.35;;
5555;SDS011;2801;50.972;7.856;2023-07-02T05:45:41;23.38;;;10.50;;
5555;SDS011;2801;50.972;7.856;2023-07-02T05:48:08;23.27;;;11.23;;
5555;SDS011;2801;50.972;7.856;2023-07-02T05:50:35;21.42;;;10.65;;
5555;SDS011;2801;50.972;7.856;2023-07-02T05:53:03;20.60;;;10.55;;
5555;SDS011;2801;50.972;7.856;2023-07-02T05:55:30;24.05;;;10.77;;
5555;SDS011;2801;50.972;7.856;2023-07-02T05:57:56;23.55;;;11.20;;
5555;SDS011;2801;50.972;7.856;2023-07-02T06:00:27;24.30;;;11.45;;
5555;SDS011;2801;50.972;7.856;2023-07-02T06:02:55;28.70;;;11.68;;
5555;SDS011;2801;50.972;7.856;2023-07-02T06:05:22;24.20;;;12.05;;
5555;SDS011;2801;50.972;7.856;2023-07-02T06:07:49;27.30;;;11.77;;
5555;SDS011;2801;50.972;7.856;2023-07-02T06:10:16;26.25;;;11.38;;
5555;SDS011;2801;50.972;7.856;2023-07-02T06:12:43;24.60;;;11.68;;
5555;SDS011;2801;50.972;7.856;2023-07-02T06:15:10;26.48;;;12.68;;
5555;SDS011;2801;50.972;7.856;2023-07-02T06:17:37;25.52;;;12.48;;
5555;SDS011;2801;50.972;7.856;2023-07-02T06:20:05;29.45;;;12.75;;
5555;SDS011;2801;50.972;7.856;2023-07-02T06:22:33;28.27;;;13.98;;
5555;SDS011;2801;50.972;7.856;2023-07-02T06:25:00;28.85;;;13.80;;
5555;SDS011;2801;50.972;7.856;2023-07-02T06:27:31;28.90;;;13.75;;
5555;SDS011;2801;50.972;7.856;2023-07-02T06:29:58;27.50;;;14.38;;
5555;SDS011;2801;50.972;7.856;2023-07-02T06:32:24;29.17;;;14.30;;
5555;SDS011;2801;50.972;7.856;2023-07-02T06:34:51;27.05;;;13.45;;
5555;SDS011;2801;50.972;7.856;2023-07-02T06:37:18;33.72;;;14.77;;
5555;SDS011;2801;50.972;7.856;2023-07-02T06:39:45;29.77;;;14.38;;
5555;SDS011;2801;50.972;7.856;2023-07-02T06:42:12;35.25;;;16.33;;
5555;SDS011;2801;50.972;7.856;2023-07-02T06:44:40;39.08;;;16.88;;
5555;SDS011;2801;50.972;7.856;2023-07-02T06:47:07;33.85;;;15.85;;
5555;SDS011;2801;50.972;7.856;2023-07-02T06:49:34;33.55;;;15.70;;
5555;SDS011;2801;50.972;7.856;2023-07-02T06:52:02;31.27;;;16.98;;
5555;SDS011;2801;50.972;7.856;2023-07-02T06:54:29;33.70;;;15.93;;
5555;SDS011;2801;50.972;7.856;2023-07-02T06:56:56;33.67;;;16.45;;
5555;SDS011;2801;50.972;7.856;2023-07-02T06:59:23;32.20;;;16.67;;
5555;SDS011;2801;50.972;7.856;2023-07-02T07:01:50;37.78;;;17.10;;
5555;SDS011;2801;50.972;7.856;2023-07-02T07:04:17;29.77;;;16.73;;
5555;SDS011;2801;50.972;7.856;2023-07-02T07:06:45;38.88;;;17.95;;
5555;SDS011;2801;50.972;7.856;2023-07-02T07:09:12;36.00;;;16.83;;
5555;SDS011;2801;50.972;7.856;2023-07-02T07:11:39;31.92;;;17.23;;
5555;SDS011;2801;50.972;7.856;2023-07-02T07:14:06;31.83;;;17.77;;
5555;SDS011;2801;50.972;7.856;2023-07-02T07:16:33;34.80;;;16.73;;
5555;SDS011;2801;50.972;7.856;2023-07-02T07:19:00;33.15;;;17.80;;
5555;SDS011;2801;50.972;7.856;2023-07-02T07:21:27;37.75;;;17.67;;
5555;SDS011;2801;50.972;7.856;2023-07-02T07:23:54;32.85;;;18.52;;
5555;SDS011;2801;50.972;7.856;2023-07-02T07:26:21;34.90;;;18.02;;
5555;SDS011;2801;50.972;7.856;2023-07-02T07:28:49;35.53;;;16.50;;
5555;SDS011;2801;50.972;7.856;2023-07-02T07:31:15;32.15;;;16.88;;
5555;SDS011;2801;50.972;7.856;2023-07-02T07:33:42;32.78;;;16.45;;
5555;SDS011;2801;50.972;7.856;2023-07-02T07:36:10;34.97;;;17.27;;
5555;SDS011;2801;50.972;7.856;2023-07-02T07:38:37;33.95;;;17.02;;
5555;SDS011;2801;50.972;7.856;2023-07-02T07:41:04;32.58;;;16.92;;
5555;SDS011;2801;50.972;7.856;2023-07-02T07:43:31;28.88;;;15.50;;
5555;SDS011;2801;50.972;7.856;2023-07-02T07:45:58;31.75;;;16.92;;
5555;SDS011;2801;50.972;7.856;2023-07-02T07:48:25;34.90;;;16.50;;
5555;SDS011;2801;50.972;7.856;2023-07-02T07:50:52;34.70;;;16.58;;
5555;SDS011;2801;50.972;7.856;2023-07-02T07:53:19;30.17;;;17.27;;
5555;SDS011;2801;50.972;7.856;2023-07-02T07:55:46;31.85;;;16.10;;
5555;SDS011;2801;50.972;7.856;2023-07-02T07:58:14;32.40;;;15.63;;
5555;SDS011;2801;50.972;7.856;2023-07-02T08:00:41;27.50;;;15.45;;
5555;SDS011;2801;50.972;7.856;2023-07-02T08:03:09;26.42;;;15.10;;
5555;SDS011;2801;50.972;7.856;2023-07-02T08:05:36;34.42;;;16.13;;
5555;SDS011;2801;50.972;7.856;2023-07-02T08:08:03;32.50;;;15.98;;
5555;SDS011;2801;50.972;7.856;2023-07-02T08:10:30;30.50;;;15.57;;
5555;SDS011;2801;50.972;7.856;2023-07-02T08:12:57;27.27;;;14.43;;
5555;SDS011;2801;50.972;7.856;2023-07-02T08:15:24;32.08;;;15.32;;
5555;SDS011;2801;50.972;7.856;2023-07-02T08:17:51;27.20;;;15.25;;
5555;SDS011;2801;50.972;7.856;2023-07-02T08:20:21;30.23;;;14.27;;
5555;SDS011;2801;50.972;7.856;2023-07-02T08:22:48;28.13;;;14.05;;
5555;SDS011;2801;50.972;7.856;2023-07-02T08:25:17;27.73;;;13.38;;
5555;SDS011;2801;50.972;7.856;2023-07-02T08:27:46;28.35;;;12.65;;
5555;SDS011;2801;50.972;7.856;2023-07-02T08:30:13;22.58;;;11.60;;
5555;SDS011;2801;50.972;7.856;2023-07-02T08:32:40;23.27;;;12.13;;
5555;SDS011;2801;50.972;7.856;2023-07-02T08:35:07;28.40;;;13.13;;
5555;SDS011;2801;50.972;7.856;2023-07-02T08:37:34;26.95;;;12.05;;
5555;SDS011;2801;50.972;7.856;2023-07-02T08:40:02;26.90;;;13.18;;
5555;SDS011;2801;50.972;7.856;2023-07-02T08:42:32;22.40;;;11.27;;
5555;SDS011;2801;50.972;7.856;2023-07-02T08:45:00;23.48;;;11.73;;
5555;SDS011;2801;50.972;7.856;2023-07-02T08:47:28;25.42;;;12.57;;
5555;SDS011;2801;50.972;7.856;2023-07-02T08:49:55;26.77;;;12.98;;
5555;SDS011;2801;50.972;7.856;2023-07-02T08:52:22;27.70;;;12.93;;
5555;SDS011;2801;50.972;7.856;2023-07-02T08:54:49;27.50;;;12.00;;
5555;SDS011;2801;50.972;7.856;2023-07-02T08:57:16;24.23;;;11.73;;
5555;SDS011;2801;50.972;7.856;2023-07-02T08:59:43;27.35;;;12.25;;
5555;SDS011;2801;50.972;7.856;2023-07-02T09:02:10;29.17;;;12.77;;
5555;SDS011;2801;50.972;7.856;2023-07-02T09:04:37;21.48;;;11.88;;
5555;SDS011;2801;50.972;7.856;2023-07-02T09:07:05;27.90;;;12.38;;
5555;SDS011;2801;50.972;7.856;2023-07-02T09:09:44;27.85;;;12.50;;
5555;SDS011;2801;50.972;7.856;2023-07-02T09:12:25;26.55;;;11.68;;
5555;SDS011;2801;50.972;7.856;2023-07-02T09:14:57;24.42;;;12.95;;
5555;SDS011;2801;50.972;7.856;2023-07-02T09:17:27;33.72;;;12.70;;
5555;SDS011;2801;50.972;7.856;2023-07-02T09:20:05;25.35;;;12.35;;
5555;SDS011;2801;50.972;7.856;2023-07-02T09:22:35;24.67;;;11.75;;
5555;SDS011;2801;50.972;7.856;2023-07-02T09:25:03;26.85;;;12.20;;
5555;SDS011;2801;50.972;7.856;2023-07-02T09:30:15;26.60;;;11.85;;
5555;SDS011;2801;50.972;7.856;2023-07-02T09:32:42;24.13;;;11.52;;
5555;SDS011;2801;50.972;7.856;2023-07-02T09:35:12;25.73;;;11.48;;
5555;SDS011;2801;50.972;7.856;2023-07-02T09:37:43;19.35;;;10.68;;
5555;SDS011;2801;50.972;7.856;2023-07-02T09:40:11;27.05;;;12.77;;
5555;SDS011;2801;50.972;7.856;2023-07-02T09:42:39;22.85;;;10.88;;
5555;SDS011;2801;50.972;7.856;2023-07-02T09:45:08;22.50;;;11.13;;
5555;SDS011;2801;50.972;7.856;2023-07-02T09:47:38;26.17;;;11.90;;
5555;SDS011;2801;50.972;7.856;2023-07-02T09:50:15;25.83;;;11.55;;
5555;SDS011;2801;50.972;7.856;2023-07-02T09:52:45;24.58;;;11.80;;
5555;SDS011;2801;50.972;7.856;2023-07-02T09:55:14;25.15;;;12.00;;
5555;SDS011;2801;50.972;7.856;2023-07-02T09:57:45;24.83;;;11.20;;
5555;SDS011;2801;50.972;7.856;2023-07-02T10:00:13;27.50;;;11.65;;
5555;SDS011;2801;50.972;7.856;2023-07-02T10:02:41;23.15;;;11.38;;
5555;SDS011;2801;50.972;7.856;2023-07-02T10:05:24;23.02;;;11.80;;
5555;SDS011;2801;50.972;7.856;2023-07-02T10:08:10;20.15;;;10.18;;
5555;SDS011;2801;50.972;7.856;2023-07-02T10:10:47;24.58;;;11.27;;
5555;SDS011;2801;50.972;7.856;2023-07-02T10:13:25;22.15;;;11.23;;
5555;SDS011;2801;50.972;7.856;2023-07-02T10:16:00;24.92;;;10.77;;
5555;SDS011;2801;50.972;7.856;2023-07-02T10:18:31;23.50;;;10.55;;
5555;SDS011;2801;50.972;7.856;2023-07-02T10:20:59;26.90;;;11.27;;
5555;SDS011;2801;50.972;7.856;2023-07-02T10:23:35;25.67;;;11.70;;
5555;SDS011;2801;50.972;7.856;2023-07-02T10:26:13;24.25;;;11.40;;
5555;SDS011;2801;50.972;7.856;2023-07-02T10:28:55;27.95;;;11.52;;
5555;SDS011;2801;50.972;7.856;2023-07-02T10:31:26;22.13;;;10.00;;
5555;SDS011;2801;50.972;7.856;2023-07-02T10:33:53;24.17;;;11.05;;
5555;SDS011;2801;50.972;7.856;2023-07-02T10:36:21;23.48;;;11.05;;
5555;SDS011;2801;50.972;7.856;2023-07-02T10:38:51;23.48;;;10.80;;
5555;SDS011;2801;50.972;7.856;2023-07-02T10:41:27;25.17;;;11.15;;
5555;SDS011;2801;50.972;7.856;2023-07-02T10:46:52;24.67;;;11.32;;
5555;SDS011;2801;50.972;7.856;2023-07-02T10:49:19;20.90;;;10.95;;
5555;SDS011;2801;50.972;7.856;2023-07-02T10:51:56;22.10;;;11.88;;
5555;SDS011;2801;50.972;7.856;2023-07-02T10:54:43;24.58;;;11.35;;
5555;SDS011;2801;50.972;7.856;2023-07-02T10:57:14;23.38;;;11.70;;
5555;SDS011;2801;50.972;7.856;2023-07-02T10:59:48;22.83;;;10.80;;
5555;SDS011;2801;50.972;7.856;2023-07-02T11:02:15;25.55;;;12.38;;
5555;SDS011;2801;50.972;7.856;2023-07-02T11:04:44;26.42;;;11.60;;
5555;SDS011;2801;50.972;7.856;2023-07-02T11:07:13;23.38;;;11.13;;
5555;SDS011;2801;50.972;7.856;2023-07-02T11:09:49;25.00;;;11.98;;
5555;SDS011;2801;50.972;7.856;2023-07-02T11:12:17;22.08;;;10.98;;
5555;SDS011;2801;50.972;7.856;2023-07-02T11:14:44;24.05;;;11.98;;
5555;SDS011;2801;50.972;7.856;2023-07-02T11:17:12;23.55;;;11.90;;
5555;SDS011;2801;50.972;7.856;2023-07-02T11:19:39;26.80;;;12.48;;
5555;SDS011;2801;50.972;7.856;2023-07-02T11:22:06;27.75;;;13.70;;
5555;SDS011;2801;50.972;7.856;2023-07-02T11:24:33;23.48;;;11.88;;
5555;SDS011;2801;50.972;7.856;2023-07-02T11:27:03;25.73;;;12.27;;
5555;SDS011;2801;50.972;7.856;2023-07-02T11:29:32;29.20;;;12.13;;
5555;SDS011;2801;50.972;7.856;2023-07-02T11:32:09;21.75;;;12.02;;
5555;SDS011;2801;50.972;7.856;2023-07-02T11:34:38;26.98;;;12.35;;
5555;SDS011;2801;50.972;7.856;2023-07-02T11:37:06;20.48;;;11.60;;
5555;SDS011;2801;50.972;7.856;2023-07-02T11:39:33;24.95;;;12.10;;
5555;SDS011;2801;50.972;7.856;2023-07-02T11:42:00;25.77;;;12.38;;
5555;SDS011;2801;50.972;7.856;2023-07-02T11:44:27;25.00;;;12.02;;
5555;SDS011;2801;50.972;7.856;2023-07-02T11:46:54;25.13;;;12.63;;
5555;SDS011;2801;50.972;7.856;2023-07-02T11:49:23;27.20;;;12.80;;
5555;SDS011;2801;50.972;7.856;2023-07-02T11:51:50;26.65;;;12.63;;
5555;SDS011;2801;50.972;7.856;2023-07-02T11:54:17;28.35;;;12.68;;
5555;SDS011;2801;50.972;7.856;2023-07-02T11:56:45;24.17;;;12.63;;
5555;SDS011;2801;50.972;7.856;2023-07-02T11:59:12;26.02;;;12.75;;
5555;SDS011;2801;50.972;7.856;2023-07-02T12:01:39;22.90;;;12.07;;
5555;SDS011;2801;50.972;7.856;2023-07-02T12:04:06;27.35;;;13.00;;
5555;SDS011;2801;50.972;7.856;2023-07-02T12:06:38;24.52;;;12.65;;
5555;SDS011;2801;50.972;7.856;2023-07-02T12:09:05;23.33;;;12.52;;
5555;SDS011;2801;50.972;7.856;2023-07-02T12:11:32;25.38;;;12.60;;
5555;SDS011;2801;50.972;7.856;2023-07-02T12:13:59;25.85;;;12.98;;
5555;SDS011;2801;50.972;7.856;2023-07-02T12:16:26;22.83;;;12.43;;
5555;SDS011;2801;50.972;7.856;2023-07-02T12:18:53;22.65;;;11.70;;
5555;SDS011;2801;50.972;7.856;2023-07-02T12:21:20;20.55;;;12.15;;
5555;SDS011;2801;50.972;7.856;2023-07-02T12:23:47;28.58;;;12.93;;
5555;SDS011;2801;50.972;7.856;2023-07-02T12:26:14;23.20;;;11.82;;
5555;SDS011;2801;50.972;7.856;2023-07-02T12:28:40;25.75;;;12.60;;
5555;SDS011;2801;50.972;7.856;2023-07-02T12:31:07;24.77;;;11.90;;
5555;SDS011;2801;50.972;7.856;2023-07-02T12:33:35;23.88;;;12.05;;
5555;SDS011;2801;50.972;7.856;2023-07-02T12:36:02;22.80;;;12.07;;
5555;SDS011;2801;50.972;7.856;2023-07-02T12:38:29;24.58;;;12.00;;
5555;SDS011;2801;50.972;7.856;2023-07-02T12:40:56;26.20;;;11.52;;
5555;SDS011;2801;50.972;7.856;2023-07-02T12:43:23;25.98;;;11.57;;
5555;SDS011;2801;50.972;7.856;2023-07-02T12:45:50;22.13;;;11.35;;
5555;SDS011;2801;50.972;7.856;2023-07-02T12:48:17;22.63;;;11.07;;
5555;SDS011;2801;50.972;7.856;2023-07-02T12:50:55;25.90;;;11.35;;
5555;SDS011;2801;50.972;7.856;2023-07-02T12:53:26;25.33;;;11.27;;
5555;SDS011;2801;50.972;7.856;2023-07-02T12:55:54;27.67;;;11.88;;
5555;SDS011;2801;50.972;7.856;2023-07-02T12:58:21;22.15;;;10.52;;
5555;SDS011;2801;50.972;7.856;2023-07-02T13:00:48;20.58;;;10.15;;
5555;SDS011;2801;50.972;7.856;2023-07-02T13:03:16;22.58;;;10.15;;
5555;SDS011;2801;50.972;7.856;2023-07-02T13:05:47;26.45;;;11.80;;
5555;SDS011;2801;50.972;7.856;2023-07-02T13:08:16;23.80;;;10.88;;
5555;SDS011;2801;50.972;7.856;2023-07-02T13:10:43;25.05;;;11.55;;
5555;SDS011;2801;50.972;7.856;2023-07-02T13:13:10;23.65;;;10.95;;
5555;SDS011;2801;50.972;7.856;2023-07-02T13:15:49;24.35;;;12.13;;
5555;SDS011;2801;50.972;7.856;2023-07-02T13:18:16;23.67;;;12.15;;
5555;SDS011;2801;50.972;7.856;2023-07-02T13:20:43;25.60;;;12.02;;
5555;SDS011;2801;50.972;7.856;2023-07-02T13:23:10;26.98;;;11.80;;
5555;SDS011;2801;50.972;7.856;2023-07-02T13:25:37;27.15;;;11.73;;
5555;SDS011;2801;50.972;7.856;2023-07-02T13:28:04;20.20;;;10.65;;
5555;SDS011;2801;50.972;7.856;2023-07-02T13:30:31;24.50;;;11.63;;
5555;SDS011;2801;50.972;7.856;2023-07-02T13:32:58;25.27;;;11.50;;
5555;SDS011;2801;50.972;7.856;2023-07-02T13:35:26;25.40;;;12.18;;
5555;SDS011;2801;50.972;7.856;2023-07-02T13:37:53;23.35;;;10.60;;
5555;SDS011;2801;50.972;7.856;2023-07-02T13:40:20;24.20;;;11.18;;
5555;SDS011;2801;50.972;7.856;2023-07-02T13:42:47;26.50;;;11.32;;
5555;SDS011;2801;50.972;7.856;2023-07-02T13:45:14;21.23;;;10.98;;
5555;SDS011;2801;50.972;7.856;2023-07-02T13:47:41;21.52;;;10.70;;
5555;SDS011;2801;50.972;7.856;2023-07-02T13:50:08;20.73;;;10.40;;
5555;SDS011;2801;50.972;7.856;2023-07-02T13:52:35;21.13;;;10.40;;
5555;SDS011;2801;50.972;7.856;2023-07-02T13:55:03;25.00;;;10.68;;
5555;SDS011;2801;50.972;7.856;2023-07-02T13:57:31;23.83;;;10.68;;
5555;SDS011;2801;50.972;7.856;2023-07-02T13:59:58;21.00;;;9.75;;
5555;SDS011;2801;50.972;7.856;2023-07-02T14:02:25;19.75;;;10.23;;
5555;SDS011;2801;50.972;7.856;2023-07-02T14:04:52;18.77;;;9.10;;
5555;SDS011;2801;50.972;7.856;2023-07-02T14:07:20;23.27;;;10.20;;
5555;SDS011;2801;50.972;7.856;2023-07-02T14:09:47;17.27;;;9.05;;
5555;SDS011;2801;50.972;7.856;2023-07-02T14:12:14;20.55;;;9.40;;
5555;SDS011;2801;50.972;7.856;2023-07-02T14:14:41;22.23;;;9.15;;
5555;SDS011;2801;50.972;7.856;2023-07-02T14:17:08;16.85;;;8.45;;
5555;SDS011;2801;50.972;7.856;2023-07-02T14:19:35;17.48;;;9.45;;
5555;SDS011;2801;50.972;7.856;2023-07-02T14:22:02;18.52;;;9.23;;
5555;SDS011;2801;50.972;7.856;2023-07-02T14:24:30;17.67;;;8.30;;
5555;SDS011;2801;50.972;7.856;2023-07-02T14:26:57;16.88;;;8.95;;
5555;SDS011;2801;50.972;7.856;2023-07-02T14:29:24;15.57;;;8.00;;
5555;SDS011;2801;50.972;7.856;2023-07-02T14:31:53;17.58;;;8.35;;
5555;SDS011;2801;50.972;7.856;2023-07-02T14:34:20;16.35;;;8.57;;
5555;SDS011;2801;50.972;7.856;2023-07-02T14:36:47;15.07;;;6.75;;
5555;SDS011;2801;50.972;7.856;2023-07-02T14:39:14;15.85;;;7.38;;
5555;SDS011;2801;50.972;7.856;2023-07-02T14:41:41;19.52;;;7.75;;
5555;SDS011;2801;50.972;7.856;2023-07-02T14:44:08;19.33;;;8.02;;
5555;SDS011;2801;50.972;7.856;2023-07-02T14:46:35;15.85;;;8.45;;
5555;SDS011;2801;50.972;7.856;2023-07-02T14:49:02;17.42;;;8.45;;
5555;SDS011;2801;50.972;7.856;2023-07-02T14:51:29;17.27;;;8.20;;
5555;SDS011;2801;50.972;7.856;2023-07-02T14:53:56;21.30;;;8.50;;
5555;SDS011;2801;50.972;7.856;2023-07-02T14:56:23;18.42;;;8.30;;
5555;SDS011;2801;50.972;7.856;2023-07-02T14:58:50;18.13;;;8.32;;
5555;SDS011;2801;50.972;7.856;2023-07-02T15:01:17;15.35;;;7.93;;
5555;SDS011;2801;50.972;7.856;2023-07-02T15:03:44;18.45;;;8.45;;
5555;SDS011;2801;50.972;7.856;2023-07-02T15:06:13;17.30;;;8.63;;
5555;SDS011;2801;50.972;7.856;2023-07-02T15:08:42;17.05;;;7.68;;